createdAt,value
2019-03-03T00:00:15.683Z,86.41
2019-03-03T00:02:46.282Z,86.53
2019-03-03T00:05:16.774Z,86.56
2019-03-03T00:07:47.390Z,87.24
2019-03-03T00:10:17.922Z,87.64
2019-03-03T00:12:48.479Z,88.51
2019-03-03T00:15:19.134Z,89.34
2019-03-03T00:17:49.709Z,89.81
2019-03-03T00:20:20.292Z,90.34
2019-03-03T00:22:50.874Z,91.00
2019-03-03T00:25:21.444Z,91.07
2019-03-03T00:27:52.011Z,91.50
2019-03-03T00:30:22.675Z,91.69
2019-03-03T00:32:53.328Z,92.02
2019-03-03T00:35:23.830Z,92.27
2019-03-03T00:38:08.894Z,92.31
2019-03-03T00:40:54.771Z,92.20
2019-03-03T00:43:56.410Z,92.37
2019-03-03T00:46:44.935Z,92.40
2019-03-03T00:49:43.430Z,92.57
2019-03-03T00:52:38.803Z,92.42
2019-03-03T00:55:26.925Z,92.58
2019-03-03T00:58:16.366Z,92.71
2019-03-03T01:00:54.401Z,92.70
2019-03-03T01:03:38.728Z,92.51
2019-03-03T01:06:28.806Z,92.54
2019-03-03T01:09:18.288Z,92.28
2019-03-03T01:11:56.219Z,92.24
2019-03-03T01:14:58.003Z,92.41
2019-03-03T01:17:41.521Z,92.16
2019-03-03T01:20:22.764Z,92.24
2019-03-03T01:23:15.097Z,92.33
2019-03-03T01:25:45.681Z,91.98
2019-03-03T01:28:16.206Z,91.86
2019-03-03T01:30:46.777Z,92.02
2019-03-03T01:33:17.271Z,91.86
2019-03-03T01:35:47.789Z,91.16
2019-03-03T01:38:18.291Z,91.26
2019-03-03T01:40:48.864Z,91.14
2019-03-03T01:43:19.407Z,90.76
2019-03-03T01:45:50.013Z,90.92
2019-03-03T01:48:20.545Z,90.55
2019-03-03T01:50:51.056Z,90.59
2019-03-03T01:53:21.620Z,90.56
2019-03-03T01:55:52.202Z,90.23
2019-03-03T01:58:22.770Z,89.89
2019-03-03T02:00:53.806Z,89.87
2019-03-03T02:03:24.776Z,89.48
2019-03-03T02:05:55.331Z,89.31
2019-03-03T02:08:25.912Z,89.41
2019-03-03T02:10:56.557Z,89.62
2019-03-03T02:13:27.127Z,89.42
2019-03-03T02:15:57.706Z,89.38
2019-03-03T02:18:28.240Z,89.47
2019-03-03T02:20:58.833Z,89.22
2019-03-03T02:23:29.446Z,89.13
2019-03-03T02:25:59.967Z,88.97
2019-03-03T02:28:30.484Z,88.78
2019-03-03T02:31:01.048Z,88.62
2019-03-03T02:33:31.563Z,88.68
2019-03-03T02:36:02.053Z,88.45
2019-03-03T02:38:32.560Z,88.21
2019-03-03T02:41:03.114Z,87.84
2019-03-03T02:43:41.807Z,87.38
2019-03-03T02:46:12.368Z,87.10
2019-03-03T02:48:42.906Z,87.02
2019-03-03T02:51:13.436Z,86.63
2019-03-03T02:53:43.985Z,86.20
2019-03-03T02:56:14.460Z,86.13
2019-03-03T02:58:45.034Z,86.06
2019-03-03T03:01:20.916Z,86.17
2019-03-03T03:03:51.493Z,86.23
2019-03-03T03:06:33.196Z,86.17
2019-03-03T03:09:29.856Z,86.13
2019-03-03T03:12:19.242Z,85.76
2019-03-03T03:15:21.117Z,85.53
2019-03-03T03:18:19.390Z,85.69
2019-03-03T03:21:01.101Z,85.59
2019-03-03T03:23:49.504Z,85.08
2019-03-03T03:26:27.813Z,84.93
2019-03-03T03:29:20.383Z,84.71
2019-03-03T03:32:10.463Z,83.97
2019-03-03T03:34:46.359Z,84.55
2019-03-03T03:37:29.966Z,84.36
2019-03-03T03:40:19.072Z,84.06
2019-03-03T03:43:17.388Z,83.88
2019-03-03T03:45:59.347Z,83.88
2019-03-03T03:48:40.948Z,83.79
2019-03-03T03:51:26.261Z,83.30
2019-03-03T03:54:17.241Z,83.36
2019-03-03T03:57:16.755Z,83.34
2019-03-03T04:00:06.131Z,83.29
2019-03-03T04:03:14.008Z,82.90
2019-03-03T04:05:52.215Z,82.36
2019-03-03T04:08:30.512Z,82.70
2019-03-03T04:11:13.428Z,82.48
2019-03-03T04:14:02.838Z,82.04
2019-03-03T04:16:48.323Z,82.11
2019-03-03T04:19:22.825Z,81.92
2019-03-03T04:22:21.212Z,82.77
2019-03-03T04:25:00.924Z,83.10
2019-03-03T04:27:37.859Z,83.24
2019-03-03T04:30:17.576Z,83.42
2019-03-03T04:33:01.431Z,83.22
2019-03-03T04:35:47.309Z,83.03
2019-03-03T04:38:52.078Z,83.02
2019-03-03T04:41:50.227Z,83.12
2019-03-03T04:44:30.060Z,83.56
2019-03-03T04:47:16.126Z,83.79
2019-03-03T04:50:05.534Z,83.84
2019-03-03T04:52:48.725Z,83.84
2019-03-03T04:55:47.251Z,83.73
2019-03-03T04:58:51.760Z,83.88
2019-03-03T05:01:30.702Z,84.38
2019-03-03T05:04:10.288Z,84.68
2019-03-03T05:06:46.187Z,85.34
2019-03-03T05:09:31.528Z,86.23
2019-03-03T05:12:38.394Z,86.64
2019-03-03T05:15:30.807Z,87.07
2019-03-03T05:18:20.241Z,87.16
2019-03-03T05:20:52.213Z,87.50
2019-03-03T05:23:22.714Z,87.92
2019-03-03T05:25:53.272Z,87.89
2019-03-03T05:28:23.836Z,88.15
2019-03-03T05:30:54.413Z,88.48
2019-03-03T05:33:25.906Z,88.51
2019-03-03T05:35:56.905Z,88.72
2019-03-03T05:38:27.451Z,89.35
2019-03-03T05:40:57.999Z,89.66
2019-03-03T05:43:28.467Z,89.96
2019-03-03T05:45:58.989Z,90.33
2019-03-03T05:48:29.481Z,90.75
2019-03-03T05:50:59.925Z,91.43
2019-03-03T05:53:30.441Z,91.78
2019-03-03T05:56:00.967Z,91.81
2019-03-03T05:58:31.522Z,92.30
2019-03-03T06:01:01.937Z,92.70
2019-03-03T06:03:32.375Z,93.03
2019-03-03T06:06:02.884Z,92.84
2019-03-03T06:08:33.269Z,93.14
2019-03-03T06:11:03.830Z,93.38
2019-03-03T06:13:34.320Z,93.67
2019-03-03T06:16:04.837Z,93.86
2019-03-03T06:18:35.342Z,94.07
2019-03-03T06:21:05.850Z,94.26
2019-03-03T06:23:36.408Z,94.42
2019-03-03T06:26:06.932Z,94.56
2019-03-03T06:28:37.338Z,94.46
2019-03-03T06:31:07.843Z,94.81
2019-03-03T06:33:38.348Z,95.12
2019-03-03T06:36:08.873Z,95.30
2019-03-03T06:38:39.383Z,95.49
2019-03-03T06:41:09.955Z,95.59
2019-03-03T06:43:40.540Z,95.66
2019-03-03T06:46:11.089Z,95.81
2019-03-03T06:48:41.612Z,96.10
2019-03-03T06:51:12.135Z,96.19
2019-03-03T06:53:42.680Z,96.17
2019-03-03T06:56:13.112Z,96.18
2019-03-03T06:58:43.642Z,96.33
2019-03-03T07:01:14.135Z,96.53
2019-03-03T07:03:44.664Z,96.62
2019-03-03T07:06:15.250Z,96.78
2019-03-03T07:08:45.702Z,96.88
2019-03-03T07:11:16.256Z,96.87
2019-03-03T07:13:46.740Z,96.95
2019-03-03T07:16:17.314Z,96.96
2019-03-03T07:18:47.893Z,97.00
2019-03-03T07:21:18.438Z,97.06
2019-03-03T07:23:48.931Z,97.15
2019-03-03T07:26:19.501Z,97.26
2019-03-03T07:28:50.018Z,97.26
2019-03-03T07:31:20.462Z,97.29
2019-03-03T07:33:54.552Z,97.29
2019-03-03T07:36:25.048Z,97.34
2019-03-03T07:38:55.512Z,97.30
2019-03-03T07:41:26.008Z,97.30
2019-03-03T07:43:56.532Z,97.38
2019-03-03T07:46:27.038Z,97.36
2019-03-03T07:48:57.537Z,97.27
2019-03-03T07:51:28.021Z,97.28
2019-03-03T07:53:58.515Z,97.29
2019-03-03T07:56:29.125Z,97.22
2019-03-03T07:58:59.622Z,97.18
2019-03-03T08:01:30.113Z,97.15
2019-03-03T08:04:00.616Z,97.19
2019-03-03T08:06:31.093Z,97.27
2019-03-03T08:09:01.610Z,97.33
2019-03-03T08:11:32.166Z,97.36
2019-03-03T08:14:02.720Z,97.33
2019-03-03T08:16:33.221Z,97.32
2019-03-03T08:19:03.747Z,97.22
2019-03-03T08:21:34.231Z,97.20
2019-03-03T08:24:04.756Z,97.25
2019-03-03T08:26:36.552Z,97.17
2019-03-03T08:29:07.177Z,97.19
2019-03-03T08:31:37.663Z,97.23
2019-03-03T08:34:08.200Z,97.20
2019-03-03T08:36:38.724Z,97.20
2019-03-03T08:39:09.994Z,97.25
2019-03-03T08:41:44.621Z,97.22
2019-03-03T08:44:21.114Z,97.10
2019-03-03T08:47:07.529Z,97.20
2019-03-03T08:49:53.020Z,97.31
2019-03-03T08:52:48.600Z,97.25
2019-03-03T08:55:43.943Z,97.16
2019-03-03T08:58:21.533Z,97.07
2019-03-03T09:01:16.891Z,97.08
2019-03-03T09:04:18.741Z,97.07
2019-03-03T09:07:04.915Z,97.11
2019-03-03T09:09:53.909Z,97.22
2019-03-03T09:12:40.362Z,97.30
2019-03-03T09:15:32.817Z,97.33
2019-03-03T09:18:12.958Z,97.29
2019-03-03T09:20:55.797Z,97.38
2019-03-03T09:23:42.514Z,97.44
2019-03-03T09:26:44.005Z,97.53
2019-03-03T09:29:35.044Z,97.53
2019-03-03T09:32:23.361Z,97.54
2019-03-03T09:35:15.804Z,97.52
2019-03-03T09:37:59.453Z,97.47
2019-03-03T09:40:39.402Z,97.52
2019-03-03T09:43:24.090Z,97.51
2019-03-03T09:46:15.980Z,97.52
2019-03-03T09:48:54.541Z,97.40
2019-03-03T09:51:43.024Z,97.37
2019-03-03T09:54:35.376Z,97.19
2019-03-03T09:57:40.421Z,96.95
2019-03-03T10:00:35.006Z,96.68
2019-03-03T10:03:28.219Z,96.85
2019-03-03T10:06:36.089Z,96.87
2019-03-03T10:09:27.121Z,96.75
2019-03-03T10:12:02.571Z,96.35
2019-03-03T10:14:38.767Z,95.95
2019-03-03T10:17:28.686Z,95.65
2019-03-03T10:20:27.013Z,95.78
2019-03-03T10:23:22.551Z,95.54
2019-03-03T10:26:03.334Z,95.95
2019-03-03T10:28:55.901Z,95.97
2019-03-03T10:31:39.648Z,95.62
2019-03-03T10:34:35.461Z,95.53
2019-03-03T10:37:28.015Z,94.98
2019-03-03T10:40:20.458Z,95.21
2019-03-03T10:43:18.743Z,94.74
2019-03-03T10:45:58.607Z,93.73
2019-03-03T10:48:39.974Z,93.59
2019-03-03T10:51:32.787Z,93.41
2019-03-03T10:54:34.532Z,93.59
2019-03-03T10:57:39.417Z,93.91
2019-03-03T11:00:28.489Z,93.85
2019-03-03T11:03:23.744Z,94.27
2019-03-03T11:06:04.971Z,94.23
2019-03-03T11:09:12.587Z,94.89
2019-03-03T11:12:02.021Z,94.03
2019-03-03T11:14:45.495Z,93.35
2019-03-03T11:17:41.039Z,93.61
2019-03-03T11:20:31.915Z,93.50
2019-03-03T11:23:14.110Z,93.76
2019-03-03T11:26:02.785Z,93.66
2019-03-03T11:28:46.257Z,94.02
2019-03-03T11:31:54.188Z,94.00
2019-03-03T11:34:48.588Z,94.37
2019-03-03T11:37:34.170Z,94.65
2019-03-03T11:40:30.229Z,94.58
2019-03-03T11:43:34.801Z,94.74
2019-03-03T11:46:11.301Z,94.43
2019-03-03T11:49:16.076Z,94.47
2019-03-03T11:52:24.032Z,94.62
2019-03-03T11:55:22.610Z,94.31
2019-03-03T11:58:11.978Z,94.49
2019-03-03T12:01:07.212Z,94.83
2019-03-03T12:04:15.032Z,94.81
2019-03-03T12:07:08.770Z,94.91
2019-03-03T12:10:00.819Z,95.10
2019-03-03T12:12:50.188Z,94.88
2019-03-03T12:15:30.718Z,95.19
2019-03-03T12:18:11.483Z,95.11
2019-03-03T12:21:01.893Z,95.30
2019-03-03T12:23:52.000Z,95.63
2019-03-03T12:26:34.775Z,95.63
2019-03-03T12:29:22.628Z,95.85
2019-03-03T12:32:21.649Z,95.97
2019-03-03T12:35:00.566Z,95.61
2019-03-03T12:37:53.034Z,95.48
2019-03-03T12:40:42.390Z,95.81
2019-03-03T12:43:40.943Z,96.04
2019-03-03T12:46:25.947Z,96.11
2019-03-03T12:49:03.600Z,95.86
2019-03-03T12:52:05.354Z,95.86
2019-03-03T12:55:04.371Z,96.07
2019-03-03T12:57:52.703Z,96.14
2019-03-03T13:00:42.108Z,95.56
2019-03-03T13:03:38.029Z,95.86
2019-03-03T13:06:30.525Z,95.56
2019-03-03T13:09:29.165Z,95.19
2019-03-03T13:12:13.071Z,95.49
2019-03-03T13:14:49.053Z,95.54
2019-03-03T13:17:35.242Z,95.30
2019-03-03T13:20:23.108Z,95.48
2019-03-03T13:23:11.539Z,94.27
2019-03-03T13:25:51.906Z,94.27
2019-03-03T13:28:41.849Z,94.79
2019-03-03T13:31:26.047Z,94.76
2019-03-03T13:34:15.477Z,94.93
2019-03-03T13:37:01.408Z,95.43
2019-03-03T13:39:40.900Z,95.26
2019-03-03T13:42:24.719Z,95.07
2019-03-03T13:44:55.329Z,94.77
2019-03-03T13:47:25.828Z,95.08
2019-03-03T13:49:56.392Z,95.25
2019-03-03T13:52:26.893Z,95.36
2019-03-03T13:54:57.340Z,95.58
2019-03-03T13:57:27.756Z,95.66
2019-03-03T13:59:58.218Z,95.92
2019-03-03T14:02:28.706Z,95.96
2019-03-03T14:04:59.210Z,95.81
2019-03-03T14:07:29.793Z,95.50
2019-03-03T14:10:01.147Z,95.59
2019-03-03T14:12:31.738Z,95.78
2019-03-03T14:15:02.238Z,96.05
2019-03-03T14:17:32.723Z,96.07
2019-03-03T14:20:03.213Z,96.11
2019-03-03T14:22:33.688Z,96.20
2019-03-03T14:25:04.299Z,96.30
2019-03-03T14:27:34.778Z,96.20
2019-03-03T14:30:05.999Z,96.56
2019-03-03T14:32:36.466Z,96.56
2019-03-03T14:35:08.204Z,96.62
2019-03-03T14:37:38.748Z,96.77
2019-03-03T14:40:11.103Z,97.02
2019-03-03T14:42:41.621Z,97.16
2019-03-03T14:45:14.566Z,97.34
2019-03-03T14:47:45.042Z,97.51
2019-03-03T14:50:17.077Z,97.54
2019-03-03T14:52:49.149Z,97.57
2019-03-03T14:55:20.441Z,97.49
2019-03-03T14:57:51.028Z,97.45
2019-03-03T15:00:28.777Z,97.30
2019-03-03T15:03:01.485Z,96.98
2019-03-03T15:05:32.540Z,96.53
2019-03-03T15:08:03.170Z,96.40
2019-03-03T15:10:33.833Z,95.94
2019-03-03T15:13:04.487Z,96.01
2019-03-03T15:15:35.749Z,95.97
2019-03-03T15:18:06.403Z,95.90
2019-03-03T15:20:37.063Z,95.89
2019-03-03T15:23:07.547Z,95.84
2019-03-03T15:25:38.372Z,96.02
2019-03-03T15:28:09.180Z,96.15
2019-03-03T15:30:39.686Z,96.31
2019-03-03T15:33:14.413Z,96.51
2019-03-03T15:35:44.926Z,96.76
2019-03-03T15:38:15.538Z,96.74
2019-03-03T15:40:46.089Z,96.51
2019-03-03T15:43:16.848Z,96.66
2019-03-03T15:45:47.507Z,96.87
2019-03-03T15:48:18.170Z,96.84
2019-03-03T15:50:48.741Z,97.03
2019-03-03T15:53:19.330Z,97.03
2019-03-03T15:55:50.183Z,97.08
2019-03-03T15:58:20.799Z,97.26
2019-03-03T16:00:51.307Z,97.40
2019-03-03T16:03:21.938Z,97.56
2019-03-03T16:05:52.517Z,97.65
2019-03-03T16:08:23.091Z,97.70
2019-03-03T16:10:53.636Z,97.74
2019-03-03T16:13:24.249Z,97.78
2019-03-03T16:15:54.776Z,97.90
2019-03-03T16:18:25.457Z,97.99
2019-03-03T16:20:56.017Z,98.06
2019-03-03T16:23:26.622Z,98.08
2019-03-03T16:29:00.382Z,98.09
2019-03-03T16:31:33.392Z,98.07
2019-03-03T16:34:06.917Z,98.08
2019-03-03T16:37:01.362Z,98.14
2019-03-03T16:39:32.143Z,97.95
2019-03-03T16:42:02.875Z,97.68
2019-03-03T16:44:33.768Z,97.77
2019-03-03T16:47:04.259Z,97.79
2019-03-03T16:49:34.867Z,97.83
2019-03-03T16:52:05.391Z,97.92
2019-03-03T16:54:38.298Z,98.02
2019-03-03T16:57:08.809Z,98.07
2019-03-03T16:59:39.835Z,98.10
2019-03-03T17:02:10.373Z,98.13
2019-03-03T17:04:40.894Z,98.15
2019-03-03T17:07:11.371Z,98.18
2019-03-03T17:09:41.919Z,98.19
2019-03-03T17:12:12.472Z,98.22
2019-03-03T17:14:42.949Z,98.24
2019-03-03T17:17:13.474Z,98.28
2019-03-03T17:19:43.928Z,98.43
2019-03-03T17:22:14.378Z,98.49
2019-03-03T17:24:44.880Z,98.53
2019-03-03T17:27:15.372Z,98.64
2019-03-03T17:29:45.855Z,98.71
2019-03-03T17:32:16.393Z,98.79
2019-03-03T17:34:46.880Z,98.84
2019-03-03T17:37:17.265Z,98.88
2019-03-03T17:39:47.792Z,98.87
2019-03-03T17:42:18.271Z,98.87
2019-03-03T17:44:48.765Z,98.87
2019-03-03T17:47:19.294Z,98.90
2019-03-03T17:49:49.761Z,98.84
2019-03-03T17:52:20.229Z,98.77
2019-03-03T17:54:50.829Z,98.71
2019-03-03T17:57:21.334Z,98.66
2019-03-03T17:59:51.814Z,98.65
2019-03-03T18:02:22.425Z,98.57
2019-03-03T18:04:52.892Z,98.51
2019-03-03T18:07:23.354Z,98.48
2019-03-03T18:09:54.054Z,98.39
2019-03-03T18:12:24.561Z,98.34
2019-03-03T18:14:55.038Z,98.28
2019-03-03T18:17:25.549Z,98.10
2019-03-03T18:19:56.040Z,98.08
2019-03-03T18:22:26.502Z,98.06
2019-03-03T18:24:57.006Z,97.99
2019-03-03T18:27:27.500Z,97.95
2019-03-03T18:29:57.960Z,97.88
2019-03-03T18:32:28.458Z,97.93
2019-03-03T18:34:58.942Z,97.90
2019-03-03T18:37:29.460Z,97.89
2019-03-03T18:40:00.337Z,97.99
2019-03-03T18:42:30.831Z,97.95
2019-03-03T18:45:01.355Z,97.88
2019-03-03T18:47:31.999Z,97.86
2019-03-03T18:50:02.512Z,97.77
2019-03-03T18:52:32.979Z,97.69
2019-03-03T18:55:03.469Z,97.62
2019-03-03T18:57:33.992Z,97.69
2019-03-03T19:00:06.142Z,97.72
2019-03-03T19:02:36.695Z,97.62
2019-03-03T19:05:07.548Z,97.63
2019-03-03T19:07:38.033Z,97.68
2019-03-03T19:10:11.779Z,97.72
2019-03-03T19:12:42.295Z,97.50
2019-03-03T19:15:15.790Z,97.45
2019-03-03T19:17:46.428Z,97.34
2019-03-03T19:20:18.499Z,97.38
2019-03-03T19:22:49.067Z,97.38
2019-03-03T19:25:19.791Z,97.41
2019-03-03T19:27:51.092Z,97.46
2019-03-03T19:30:25.987Z,97.46
2019-03-03T19:33:11.112Z,97.30
2019-03-03T19:35:41.604Z,97.38
2019-03-03T19:38:12.135Z,97.40
2019-03-03T19:40:42.796Z,97.52
2019-03-03T19:43:13.403Z,97.52
2019-03-03T19:45:43.902Z,97.57
2019-03-03T19:48:14.859Z,97.70
2019-03-03T19:50:45.352Z,97.78
2019-03-03T19:53:15.971Z,97.78
2019-03-03T19:55:46.478Z,97.90
2019-03-03T19:58:17.108Z,97.81
2019-03-03T20:00:48.004Z,97.72
2019-03-03T20:03:18.477Z,97.78
2019-03-03T20:05:48.977Z,97.70
2019-03-03T20:08:19.437Z,97.72
2019-03-03T20:10:50.099Z,97.68
2019-03-03T20:13:20.666Z,97.77
2019-03-03T20:15:51.553Z,97.72
2019-03-03T20:18:22.070Z,97.67
2019-03-03T20:20:52.575Z,97.70
2019-03-03T20:26:02.241Z,97.71
2019-03-03T20:28:32.796Z,97.50
2019-03-03T20:31:04.096Z,97.58
2019-03-03T20:33:34.656Z,97.65
2019-03-03T20:36:05.342Z,97.61
2019-03-03T20:38:35.848Z,97.52
2019-03-03T20:41:06.371Z,97.58
2019-03-03T20:43:36.879Z,97.59
2019-03-03T20:46:07.398Z,97.53
2019-03-03T20:48:37.957Z,97.53
2019-03-03T20:51:08.590Z,97.59
2019-03-03T20:53:39.067Z,97.75
2019-03-03T20:56:09.557Z,97.77
2019-03-03T20:58:40.102Z,97.76
2019-03-03T21:01:10.687Z,97.74
2019-03-03T21:03:41.242Z,97.66
2019-03-03T21:06:11.882Z,97.66
2019-03-03T21:08:43.646Z,97.53
2019-03-03T21:11:14.256Z,97.53
2019-03-03T21:13:44.847Z,97.56
2019-03-03T21:16:15.548Z,97.50
2019-03-03T21:18:46.091Z,97.60
2019-03-03T21:21:16.589Z,97.26
2019-03-03T21:23:47.165Z,97.19
2019-03-03T21:26:17.654Z,97.30
2019-03-03T21:28:48.152Z,97.38
2019-03-03T21:31:18.664Z,97.49
2019-03-03T21:33:49.200Z,97.45
2019-03-03T21:36:19.711Z,97.41
2019-03-03T21:38:50.299Z,97.31
2019-03-03T21:41:20.983Z,97.18
2019-03-03T21:43:51.523Z,97.20
2019-03-03T21:46:22.007Z,97.14
2019-03-03T21:48:52.577Z,97.14
2019-03-03T21:51:23.457Z,97.20
2019-03-03T21:53:53.955Z,97.15
2019-03-03T21:56:24.491Z,97.05
2019-03-03T21:58:54.993Z,97.08
2019-03-03T22:01:25.491Z,96.95
2019-03-03T22:03:56.033Z,96.96
2019-03-03T22:06:26.511Z,96.98
2019-03-03T22:08:57.041Z,96.86
2019-03-03T22:11:27.556Z,96.50
2019-03-03T22:13:58.065Z,96.64
2019-03-03T22:16:28.625Z,96.62
2019-03-03T22:18:59.123Z,96.67
2019-03-03T22:21:29.647Z,96.54
2019-03-03T22:24:00.096Z,96.56
2019-03-03T22:26:30.655Z,96.55
2019-03-03T22:29:01.123Z,96.32
2019-03-03T22:31:31.616Z,96.39
2019-03-03T22:34:02.158Z,96.57
2019-03-03T22:36:32.602Z,96.54
2019-03-03T22:39:03.010Z,96.51
2019-03-03T22:41:33.525Z,96.58
2019-03-03T22:44:03.987Z,96.41
2019-03-03T22:46:34.534Z,96.34
2019-03-03T22:49:05.189Z,96.29
2019-03-03T22:51:35.709Z,96.49
2019-03-03T22:54:06.221Z,96.38
2019-03-03T22:56:36.708Z,96.40
2019-03-03T22:59:07.199Z,96.50
2019-03-03T23:01:42.775Z,96.20
2019-03-03T23:05:12.032Z,96.20
2019-03-03T23:08:26.147Z,96.29
2019-03-03T23:11:28.890Z,96.49
2019-03-03T23:14:39.285Z,96.37
2019-03-03T23:18:02.429Z,95.99
2019-03-03T23:20:47.443Z,95.90
2019-03-03T23:23:49.594Z,96.07
2019-03-03T23:26:20.080Z,96.15
2019-03-03T23:28:50.535Z,96.21
2019-03-03T23:31:21.047Z,96.29
2019-03-03T23:33:51.597Z,95.94
2019-03-03T23:36:22.112Z,95.51
2019-03-03T23:38:52.844Z,95.32
2019-03-03T23:41:23.259Z,95.29
2019-03-03T23:43:53.866Z,94.54
2019-03-03T23:46:24.332Z,94.54
2019-03-03T23:48:54.903Z,94.77
2019-03-03T23:51:25.350Z,94.68
2019-03-03T23:53:55.803Z,94.66
2019-03-03T23:56:26.402Z,95.32
2019-03-03T23:58:56.893Z,95.27
